»·PEaware :: VRD1510 KSEA-KSFO

VRD1510 :: KSEA-KSFO

FLIGHT INFORMATION

Flight Status: Arrived
Operator:
Virgin America
More flights by this operator :: More flights under this callsign
Pilot: Justin S. (10202)
Aircraft: AIRBUS A320
(A320)
More flights by this aircraft type
Origin: KSEA Seattle-Tacoma Intl
United States
Destination: KSFO San Francisco Intl
United States
More flights between these airports :: More routes between these airports
Route: HAROB6 FEPOT Q3 FOWND MLBEC BDEGA2
File this flight plan on PilotEdge
Remarks:
Altitude:
(Current/Filed)
35,000ft
Speed:
(Current/Filed)
451kts
Departed: 01-Jan-18 08:04 PM
Arrived: 01-Jan-18 09:39 PM
Distance/Time
Traveled:
590nm/1:34
Distance/Time
To Go:
Arrived

Flight Plot

Page will automatically refresh every two minutes.

Flight plan parsing failed; only flown route is shown


Map Options




Map Legend


Flown Route
Filed Route
Departure Airport
Arrival Airport
Navaid (VOR, NDB)
Fix

Horizontal Profiles

Position Reports

Time Latitude Longitude Heading Altitude Ground
Speed
01-Jan-18 19:48 47.445802 -122.301191 134 447ft 0kts
01-Jan-18 19:49 47.445802 -122.301191 134 447ft 0kts
01-Jan-18 19:50 47.445802 -122.301191 134 447ft 0kts
01-Jan-18 19:51 47.445802 -122.301191 134 447ft 0kts
01-Jan-18 19:52 47.445802 -122.301191 134 447ft 0kts
01-Jan-18 19:53 47.445802 -122.301191 134 447ft 0kts
01-Jan-18 19:54 47.446044 -122.301589 124 447ft 2kts
01-Jan-18 19:55 47.445972 -122.302126 11 447ft 1kts
01-Jan-18 19:56 47.445972 -122.302126 11 447ft 0kts
01-Jan-18 19:57 47.445973 -122.302126 11 447ft 0kts
01-Jan-18 19:58 47.445973 -122.302126 11 447ft 0kts
01-Jan-18 19:59 47.445973 -122.302126 11 447ft 0kts
01-Jan-18 20:00 47.445974 -122.302126 11 447ft 0kts
01-Jan-18 20:01 47.446443 -122.301987 11 447ft 5kts
01-Jan-18 20:02 47.447586 -122.303927 305 447ft 0kts
01-Jan-18 20:03 47.447621 -122.303998 305 447ft 1kts
01-Jan-18 20:04 47.448059 -122.305801 261 447ft 8kts
01-Jan-18 20:05 47.444787 -122.306344 180 447ft 17kts
01-Jan-18 20:06 47.438624 -122.306384 179 447ft 26kts
01-Jan-18 20:07 47.434703 -122.305618 182 447ft 4kts
01-Jan-18 20:08 47.431861 -122.305364 158 447ft 9kts
01-Jan-18 20:09 47.431865 -122.308002 349 447ft 7kts
01-Jan-18 20:10 47.463076 -122.308454 0 1670ft 150kts
01-Jan-18 20:11 47.510716 -122.307605 358 3330ft 201kts
01-Jan-18 20:12 47.574078 -122.327136 325 5264ft 263kts
01-Jan-18 20:13 47.614582 -122.414153 278 8500ft 272kts
01-Jan-18 20:14 47.589864 -122.517177 225 10937ft 306kts
01-Jan-18 20:15 47.523562 -122.615251 227 12425ft 357kts
01-Jan-18 20:16 47.453397 -122.722628 227 14828ft 368kts
01-Jan-18 20:17 47.380920 -122.832762 227 16912ft 380kts
01-Jan-18 20:18 47.306028 -122.945807 227 18802ft 391kts
01-Jan-18 20:19 47.226817 -123.059133 219 20532ft 403kts
01-Jan-18 20:20 47.135516 -123.158135 218 22064ft 412kts
01-Jan-18 20:21 47.029891 -123.219263 180 23671ft 425kts
01-Jan-18 20:22 46.910412 -123.212291 181 24918ft 435kts
01-Jan-18 20:23 46.788028 -123.209122 181 26062ft 445kts
01-Jan-18 20:24 46.662585 -123.204733 181 27125ft 454kts
01-Jan-18 20:25 46.535026 -123.200535 181 28105ft 463kts
01-Jan-18 20:26 46.404642 -123.196254 181 29007ft 472kts
01-Jan-18 20:27 46.272979 -123.191872 181 30061ft 473kts
01-Jan-18 20:28 46.141421 -123.187604 182 31135ft 474kts
01-Jan-18 20:29 46.009282 -123.183308 182 32173ft 473kts
01-Jan-18 20:30 45.877778 -123.179054 183 33146ft 473kts
01-Jan-18 20:31 45.746500 -123.174810 183 34034ft 472kts
01-Jan-18 20:32 45.614992 -123.170614 183 34804ft 471kts
01-Jan-18 20:33 45.484185 -123.166437 184 35448ft 471kts
01-Jan-18 20:34 45.353018 -123.162283 184 35457ft 470kts
01-Jan-18 20:35 45.222308 -123.158155 184 35457ft 470kts
01-Jan-18 20:36 45.091490 -123.154050 184 35426ft 471kts
01-Jan-18 20:37 44.960177 -123.149944 184 35423ft 471kts
01-Jan-18 20:38 44.829321 -123.145839 184 35419ft 471kts
01-Jan-18 20:39 44.698035 -123.141788 184 35420ft 471kts
01-Jan-18 20:40 44.567162 -123.137747 184 35424ft 471kts
01-Jan-18 20:41 44.436256 -123.133572 183 35424ft 471kts
01-Jan-18 20:42 44.304929 -123.128651 184 35428ft 471kts
01-Jan-18 20:43 44.173971 -123.124035 183 35433ft 471kts
01-Jan-18 20:44 44.043094 -123.119408 183 35438ft 471kts
01-Jan-18 20:45 43.911707 -123.114745 183 35445ft 471kts
01-Jan-18 20:46 43.780762 -123.110161 183 35451ft 471kts
01-Jan-18 20:47 43.649196 -123.105573 183 35409ft 472kts
01-Jan-18 20:48 43.517905 -123.100981 183 35412ft 473kts
01-Jan-18 20:49 43.386582 -123.096428 183 35421ft 473kts
01-Jan-18 20:50 43.254751 -123.091917 183 35433ft 473kts
01-Jan-18 20:51 43.123422 -123.087389 183 35409ft 472kts
01-Jan-18 20:52 42.992645 -123.082898 183 35391ft 470kts
01-Jan-18 20:53 42.861796 -123.078440 183 35306ft 469kts
01-Jan-18 20:54 42.730745 -123.074019 183 35278ft 474kts
01-Jan-18 20:55 42.598125 -123.069516 183 35368ft 477kts
01-Jan-18 20:56 42.465578 -123.065056 183 35375ft 476kts
01-Jan-18 20:57 42.333555 -123.060794 183 35355ft 474kts
01-Jan-18 20:58 42.201335 -123.056528 183 35291ft 474kts
01-Jan-18 20:59 42.069507 -123.052297 183 35329ft 475kts
01-Jan-18 21:00 41.936867 -123.048047 183 35417ft 476kts
01-Jan-18 21:01 41.805592 -123.043875 182 35380ft 473kts
01-Jan-18 21:02 41.674380 -123.039673 182 35394ft 471kts
01-Jan-18 21:03 41.541921 -123.035523 182 35406ft 478kts
01-Jan-18 21:04 41.409499 -123.031306 182 35436ft 475kts
01-Jan-18 21:05 41.278028 -123.027233 182 35368ft 472kts
01-Jan-18 21:06 41.146860 -123.023298 182 35290ft 469kts
01-Jan-18 21:07 41.016350 -123.019375 182 35373ft 472kts
01-Jan-18 21:08 40.884130 -123.015393 182 35441ft 476kts
01-Jan-18 21:09 40.751899 -123.011424 182 35367ft 475kts
01-Jan-18 21:10 40.620479 -123.007511 182 35355ft 470kts
01-Jan-18 21:11 40.491036 -123.003679 181 35295ft 460kts
01-Jan-18 21:12 40.363186 -122.999913 181 35280ft 460kts
01-Jan-18 21:13 40.235080 -122.996126 181 35245ft 458kts
01-Jan-18 21:14 40.107202 -122.992371 181 35253ft 461kts
01-Jan-18 21:15 39.978809 -122.988617 181 35361ft 462kts
01-Jan-18 21:16 39.849978 -122.984888 181 35316ft 461kts
01-Jan-18 21:17 39.722114 -122.981160 181 35293ft 459kts
01-Jan-18 21:18 39.594578 -122.977481 181 35244ft 458kts
01-Jan-18 21:19 39.467262 -122.973806 181 35300ft 455kts
01-Jan-18 21:20 39.340928 -122.970187 181 35291ft 455kts
01-Jan-18 21:21 39.215054 -122.966563 181 35018ft 441kts
01-Jan-18 21:22 39.091836 -122.963119 181 31617ft 451kts
01-Jan-18 21:23 38.964896 -122.960709 181 29022ft 458kts
01-Jan-18 21:24 38.839028 -122.949024 169 27724ft 451kts
01-Jan-18 21:25 38.718135 -122.912172 169 26285ft 443kts
01-Jan-18 21:26 38.599230 -122.877363 168 24784ft 428kts
01-Jan-18 21:27 38.488778 -122.844838 168 23290ft 394kts
01-Jan-18 21:28 38.400453 -122.818861 168 21903ft 387kts
01-Jan-18 21:29 38.296415 -122.788388 168 20278ft 380kts
01-Jan-18 21:30 38.178444 -122.753952 168 18532ft 367kts
01-Jan-18 21:31 38.080408 -122.725480 168 17035ft 356kts
01-Jan-18 21:32 38.000534 -122.702358 168 15783ft 348kts
01-Jan-18 21:33 37.907851 -122.674950 161 14279ft 338kts
01-Jan-18 21:34 37.829983 -122.583506 116 12527ft 325kts
01-Jan-18 21:35 37.801515 -122.500465 113 11277ft 294kts
01-Jan-18 21:36 37.770515 -122.407285 113 9777ft 284kts
01-Jan-18 21:37 37.740099 -122.315882 113 8143ft 280kts
01-Jan-18 21:38 37.709284 -122.227115 120 6992ft 273kts
01-Jan-18 21:39 37.660081 -122.162146 161 5581ft 245kts
01-Jan-18 21:40 37.597801 -122.169499 202 4069ft 210kts
01-Jan-18 21:41 37.563031 -122.220640 260 2401ft 189kts
01-Jan-18 21:42 37.577716 -122.276959 300 1388ft 150kts
01-Jan-18 21:43 37.596796 -122.322442 296 850ft 146kts
01-Jan-18 21:44 37.615727 -122.367810 297 28ft 134kts
01-Jan-18 21:45 37.622619 -122.385813 214 27ft 0kts
01-Jan-18 21:46 37.621983 -122.386209 208 27ft 6kts
01-Jan-18 21:47 37.620716 -122.384522 116 27ft 11kts
01-Jan-18 21:48 37.618959 -122.381726 167 27ft 7kts
01-Jan-18 21:49 37.618565 -122.381625 168 27ft 0kts
01-Jan-18 21:50 37.618565 -122.381625 168 27ft 0kts
01-Jan-18 21:51 37.618565 -122.381625 168 27ft 0kts

Navigation Log

Ident Type
Flight plan parsing failed, navigation log unavailable